sensor_id;sensor_type;location;lat;lon;timestamp;pressure;altitude;pressure_sealevel;temperature;humidity
46087;BME280;31824;49.648;8.640;2023-08-08T00:01:44;100410.97;;;14.65;100.00
46087;BME280;31824;49.648;8.640;2023-08-08T00:04:48;100410.06;;;14.55;100.00
46087;BME280;31824;49.648;8.640;2023-08-08T00:07:52;100418.47;;;14.71;100.00
46087;BME280;31824;49.648;8.640;2023-08-08T00:10:54;100419.19;;;14.80;100.00
46087;BME280;31824;49.648;8.640;2023-08-08T00:13:56;100418.63;;;14.84;100.00
46087;BME280;31824;49.648;8.640;2023-08-08T00:16:58;100415.25;;;14.75;100.00
46087;BME280;31824;49.648;8.640;2023-08-08T00:20:00;100423.41;;;14.56;100.00
46087;BME280;31824;49.648;8.640;2023-08-08T00:23:04;100422.00;;;14.49;100.00
46087;BME280;31824;49.648;8.640;2023-08-08T00:26:06;100408.84;;;14.39;100.00
46087;BME280;31824;49.648;8.640;2023-08-08T00:29:07;100416.63;;;14.15;100.00
46087;BME280;31824;49.648;8.640;2023-08-08T00:32:09;100413.44;;;14.19;100.00
46087;BME280;31824;49.648;8.640;2023-08-08T00:35:11;100401.84;;;14.17;100.00
46087;BME280;31824;49.648;8.640;2023-08-08T00:38:14;100394.38;;;14.24;100.00
46087;BME280;31824;49.648;8.640;2023-08-08T00:41:18;100395.38;;;14.14;100.00
46087;BME280;31824;49.648;8.640;2023-08-08T00:44:20;100404.84;;;13.90;100.00
46087;BME280;31824;49.648;8.640;2023-08-08T00:47:22;100396.44;;;13.83;100.00
46087;BME280;31824;49.648;8.640;2023-08-08T00:50:24;100397.50;;;13.75;100.00
46087;BME280;31824;49.648;8.640;2023-08-08T00:53:27;100394.81;;;13.85;100.00
46087;BME280;31824;49.648;8.640;2023-08-08T00:56:33;100394.03;;;13.87;100.00
46087;BME280;31824;49.648;8.640;2023-08-08T00:59:35;100396.19;;;13.80;100.00
46087;BME280;31824;49.648;8.640;2023-08-08T01:02:37;100404.13;;;13.60;100.00
46087;BME280;31824;49.648;8.640;2023-08-08T01:05:43;100397.59;;;13.44;100.00
46087;BME280;31824;49.648;8.640;2023-08-08T01:08:55;100403.25;;;13.28;100.00
46087;BME280;31824;49.648;8.640;2023-08-08T01:11:59;100400.09;;;13.22;100.00
46087;BME280;31824;49.648;8.640;2023-08-08T01:15:04;100393.88;;;13.22;100.00
46087;BME280;31824;49.648;8.640;2023-08-08T01:18:09;100400.75;;;13.20;100.00
46087;BME280;31824;49.648;8.640;2023-08-08T01:21:11;100402.88;;;13.44;100.00
46087;BME280;31824;49.648;8.640;2023-08-08T01:24:18;100402.75;;;13.43;100.00
46087;BME280;31824;49.648;8.640;2023-08-08T01:27:20;100394.13;;;13.35;100.00
46087;BME280;31824;49.648;8.640;2023-08-08T01:30:22;100399.03;;;13.41;100.00
46087;BME280;31824;49.648;8.640;2023-08-08T01:33:24;100391.91;;;13.50;100.00
46087;BME280;31824;49.648;8.640;2023-08-08T01:36:30;100395.06;;;13.56;100.00
46087;BME280;31824;49.648;8.640;2023-08-08T01:39:36;100396.50;;;13.53;100.00
46087;BME280;31824;49.648;8.640;2023-08-08T01:42:40;100390.41;;;13.64;100.00
46087;BME280;31824;49.648;8.640;2023-08-08T01:45:44;100392.00;;;13.62;100.00
46087;BME280;31824;49.648;8.640;2023-08-08T01:48:46;100399.56;;;13.57;100.00
46087;BME280;31824;49.648;8.640;2023-08-08T01:51:50;100399.81;;;13.60;100.00
46087;BME280;31824;49.648;8.640;2023-08-08T01:54:56;100394.88;;;13.65;100.00
46087;BME280;31824;49.648;8.640;2023-08-08T01:57:57;100398.97;;;13.72;100.00
46087;BME280;31824;49.648;8.640;2023-08-08T02:00:59;100391.69;;;13.79;100.00
46087;BME280;31824;49.648;8.640;2023-08-08T02:04:02;100393.59;;;13.92;100.00
46087;BME280;31824;49.648;8.640;2023-08-08T02:07:04;100388.44;;;13.94;100.00
46087;BME280;31824;49.648;8.640;2023-08-08T02:10:08;100383.16;;;13.94;100.00
46087;BME280;31824;49.648;8.640;2023-08-08T02:13:10;100382.09;;;14.02;100.00
46087;BME280;31824;49.648;8.640;2023-08-08T02:16:11;100385.22;;;14.08;100.00
46087;BME280;31824;49.648;8.640;2023-08-08T02:19:13;100383.31;;;13.95;100.00
46087;BME280;31824;49.648;8.640;2023-08-08T02:22:16;100385.31;;;13.88;100.00
46087;BME280;31824;49.648;8.640;2023-08-08T02:25:20;100374.22;;;13.92;100.00
46087;BME280;31824;49.648;8.640;2023-08-08T02:28:22;100375.66;;;13.88;100.00
46087;BME280;31824;49.648;8.640;2023-08-08T02:31:24;100377.06;;;13.62;100.00
46087;BME280;31824;49.648;8.640;2023-08-08T02:34:26;100364.69;;;13.61;100.00
46087;BME280;31824;49.648;8.640;2023-08-08T02:37:28;100367.72;;;13.56;100.00
46087;BME280;31824;49.648;8.640;2023-08-08T02:40:31;100378.97;;;13.53;100.00
46087;BME280;31824;49.648;8.640;2023-08-08T02:43:35;100379.53;;;13.39;100.00
46087;BME280;31824;49.648;8.640;2023-08-08T02:46:37;100378.47;;;13.16;100.00
46087;BME280;31824;49.648;8.640;2023-08-08T02:49:40;100382.69;;;13.14;100.00
46087;BME280;31824;49.648;8.640;2023-08-08T02:52:42;100377.13;;;13.31;100.00
46087;BME280;31824;49.648;8.640;2023-08-08T02:55:46;100370.28;;;13.23;100.00
46087;BME280;31824;49.648;8.640;2023-08-08T02:58:48;100362.53;;;13.04;100.00
46087;BME280;31824;49.648;8.640;2023-08-08T03:01:50;100365.81;;;13.22;100.00
46087;BME280;31824;49.648;8.640;2023-08-08T03:04:52;100364.06;;;13.33;100.00
46087;BME280;31824;49.648;8.640;2023-08-08T03:07:57;100368.97;;;13.18;100.00
46087;BME280;31824;49.648;8.640;2023-08-08T03:11:02;100376.22;;;13.21;100.00
46087;BME280;31824;49.648;8.640;2023-08-08T03:14:04;100367.66;;;13.23;100.00
46087;BME280;31824;49.648;8.640;2023-08-08T03:17:06;100363.81;;;13.20;100.00
46087;BME280;31824;49.648;8.640;2023-08-08T03:20:09;100362.53;;;13.04;100.00
46087;BME280;31824;49.648;8.640;2023-08-08T03:23:13;100364.22;;;13.04;100.00
46087;BME280;31824;49.648;8.640;2023-08-08T03:26:16;100361.72;;;13.05;100.00
46087;BME280;31824;49.648;8.640;2023-08-08T03:29:19;100365.31;;;13.06;100.00
46087;BME280;31824;49.648;8.640;2023-08-08T03:32:23;100367.25;;;12.88;100.00
46087;BME280;31824;49.648;8.640;2023-08-08T03:35:25;100364.25;;;12.83;100.00
46087;BME280;31824;49.648;8.640;2023-08-08T03:38:27;100372.41;;;12.86;100.00
46087;BME280;31824;49.648;8.640;2023-08-08T03:41:30;100379.66;;;12.89;100.00
46087;BME280;31824;49.648;8.640;2023-08-08T03:44:32;100378.72;;;12.98;100.00
46087;BME280;31824;49.648;8.640;2023-08-08T03:47:34;100378.34;;;13.04;100.00
46087;BME280;31824;49.648;8.640;2023-08-08T03:50:36;100375.16;;;12.88;100.00
46087;BME280;31824;49.648;8.640;2023-08-08T03:53:38;100372.03;;;12.81;100.00
46087;BME280;31824;49.648;8.640;2023-08-08T03:56:41;100365.56;;;12.88;100.00
46087;BME280;31824;49.648;8.640;2023-08-08T03:59:43;100370.97;;;12.79;100.00
46087;BME280;31824;49.648;8.640;2023-08-08T04:02:46;100370.84;;;12.88;100.00
46087;BME280;31824;49.648;8.640;2023-08-08T04:05:48;100379.13;;;12.93;100.00
46087;BME280;31824;49.648;8.640;2023-08-08T04:08:50;100373.88;;;12.93;100.00
46087;BME280;31824;49.648;8.640;2023-08-08T04:11:53;100372.28;;;12.84;100.00
46087;BME280;31824;49.648;8.640;2023-08-08T04:14:55;100377.03;;;12.78;100.00
46087;BME280;31824;49.648;8.640;2023-08-08T04:17:57;100371.75;;;12.68;100.00
46087;BME280;31824;49.648;8.640;2023-08-08T04:21:00;100382.69;;;12.73;100.00
46087;BME280;31824;49.648;8.640;2023-08-08T04:24:02;100374.91;;;12.64;100.00
46087;BME280;31824;49.648;8.640;2023-08-08T04:27:06;100367.16;;;12.76;100.00
46087;BME280;31824;49.648;8.640;2023-08-08T04:30:08;100370.19;;;12.70;100.00
46087;BME280;31824;49.648;8.640;2023-08-08T04:33:10;100378.19;;;12.61;100.00
46087;BME280;31824;49.648;8.640;2023-08-08T04:36:12;100376.75;;;12.55;100.00
46087;BME280;31824;49.648;8.640;2023-08-08T04:39:14;100378.75;;;12.68;100.00
46087;BME280;31824;49.648;8.640;2023-08-08T04:42:18;100389.41;;;12.59;100.00
46087;BME280;31824;49.648;8.640;2023-08-08T04:45:20;100386.34;;;12.44;100.00
46087;BME280;31824;49.648;8.640;2023-08-08T04:48:23;100391.72;;;12.35;100.00
46087;BME280;31824;49.648;8.640;2023-08-08T04:51:25;100388.81;;;12.32;100.00
46087;BME280;31824;49.648;8.640;2023-08-08T04:54:27;100381.31;;;12.37;100.00
46087;BME280;31824;49.648;8.640;2023-08-08T04:57:31;100394.25;;;12.44;100.00
46087;BME280;31824;49.648;8.640;2023-08-08T05:00:33;100389.94;;;12.65;100.00
46087;BME280;31824;49.648;8.640;2023-08-08T05:03:36;100386.13;;;12.72;100.00
46087;BME280;31824;49.648;8.640;2023-08-08T05:06:38;100376.22;;;12.79;100.00
46087;BME280;31824;49.648;8.640;2023-08-08T05:09:40;100370.44;;;12.83;100.00
46087;BME280;31824;49.648;8.640;2023-08-08T05:12:43;100372.41;;;12.96;100.00
46087;BME280;31824;49.648;8.640;2023-08-08T05:15:45;100372.41;;;12.86;100.00
46087;BME280;31824;49.648;8.640;2023-08-08T05:18:47;100379.66;;;12.89;100.00
46087;BME280;31824;49.648;8.640;2023-08-08T05:21:49;100378.34;;;13.04;100.00
46087;BME280;31824;49.648;8.640;2023-08-08T05:24:52;100375.56;;;13.13;100.00
46087;BME280;31824;49.648;8.640;2023-08-08T05:27:55;100379.13;;;13.13;100.00
46087;BME280;31824;49.648;8.640;2023-08-08T05:30:57;100378.59;;;13.17;100.00
46087;BME280;31824;49.648;8.640;2023-08-08T05:34:00;100379.13;;;13.24;100.00
46087;BME280;31824;49.648;8.640;2023-08-08T05:37:03;100380.16;;;13.26;100.00
46087;BME280;31824;49.648;8.640;2023-08-08T05:40:17;100382.41;;;13.21;100.00
46087;BME280;31824;49.648;8.640;2023-08-08T05:43:21;100383.19;;;13.30;100.00
46087;BME280;31824;49.648;8.640;2023-08-08T05:46:23;100383.19;;;13.30;100.00
46087;BME280;31824;49.648;8.640;2023-08-08T05:49:25;100376.31;;;13.32;100.00
46087;BME280;31824;49.648;8.640;2023-08-08T05:52:27;100383.31;;;13.32;100.00
46087;BME280;31824;49.648;8.640;2023-08-08T05:55:29;100382.41;;;13.42;100.00
46087;BME280;31824;49.648;8.640;2023-08-08T05:58:33;100375.56;;;13.44;100.00
46087;BME280;31824;49.648;8.640;2023-08-08T06:01:35;100378.44;;;13.47;100.00
46087;BME280;31824;49.648;8.640;2023-08-08T06:04:37;100372.63;;;13.51;100.00
46087;BME280;31824;49.648;8.640;2023-08-08T06:07:39;100376.19;;;13.51;100.00
46087;BME280;31824;49.648;8.640;2023-08-08T06:10:41;100371.44;;;13.47;100.00
46087;BME280;31824;49.648;8.640;2023-08-08T06:13:44;100375.63;;;13.56;100.00
46087;BME280;31824;49.648;8.640;2023-08-08T06:16:46;100378.03;;;13.63;100.00
46087;BME280;31824;49.648;8.640;2023-08-08T06:19:48;100379.19;;;13.66;100.00
46087;BME280;31824;49.648;8.640;2023-08-08T06:22:51;100386.72;;;13.72;100.00
46087;BME280;31824;49.648;8.640;2023-08-08T06:25:53;100380.88;;;13.76;100.00
46087;BME280;31824;49.648;8.640;2023-08-08T06:28:56;100387.28;;;13.90;100.00
46087;BME280;31824;49.648;8.640;2023-08-08T06:31:58;100385.66;;;14.02;100.00
46087;BME280;31824;49.648;8.640;2023-08-08T06:35:01;100388.94;;;14.10;100.00
46087;BME280;31824;49.648;8.640;2023-08-08T06:38:03;100388.50;;;14.16;100.00
46087;BME280;31824;49.648;8.640;2023-08-08T06:41:05;100384.94;;;14.38;100.00
46087;BME280;31824;49.648;8.640;2023-08-08T06:44:09;100391.38;;;14.41;100.00
46087;BME280;31824;49.648;8.640;2023-08-08T06:47:10;100382.72;;;14.54;100.00
46087;BME280;31824;49.648;8.640;2023-08-08T06:50:12;100386.16;;;14.75;100.00
46087;BME280;31824;49.648;8.640;2023-08-08T06:53:15;100381.81;;;14.76;100.00
46087;BME280;31824;49.648;8.640;2023-08-08T06:56:17;100383.69;;;14.89;100.00
46087;BME280;31824;49.648;8.640;2023-08-08T06:59:20;100368.31;;;14.95;100.00
46087;BME280;31824;49.648;8.640;2023-08-08T07:02:23;100374.84;;;15.00;100.00
46087;BME280;31824;49.648;8.640;2023-08-08T07:05:25;100373.03;;;14.99;100.00
46087;BME280;31824;49.648;8.640;2023-08-08T07:08:27;100370.50;;;15.00;100.00
46087;BME280;31824;49.648;8.640;2023-08-08T07:11:29;100379.84;;;15.07;100.00
46087;BME280;31824;49.648;8.640;2023-08-08T07:14:32;100382.25;;;15.16;100.00
46087;BME280;31824;49.648;8.640;2023-08-08T07:17:34;100384.69;;;15.13;100.00
46087;BME280;31824;49.648;8.640;2023-08-08T07:20:36;100372.28;;;15.24;100.00
46087;BME280;31824;49.648;8.640;2023-08-08T07:23:38;100374.13;;;15.48;100.00
46087;BME280;31824;49.648;8.640;2023-08-08T07:26:40;100363.66;;;15.62;100.00
46087;BME280;31824;49.648;8.640;2023-08-08T07:29:45;100366.78;;;15.56;100.00
46087;BME280;31824;49.648;8.640;2023-08-08T07:32:47;100367.53;;;15.79;100.00
46087;BME280;31824;49.648;8.640;2023-08-08T07:35:49;100361.22;;;15.77;100.00
46087;BME280;31824;49.648;8.640;2023-08-08T07:38:51;100354.78;;;15.97;100.00
46087;BME280;31824;49.648;8.640;2023-08-08T07:41:53;100353.84;;;16.08;100.00
46087;BME280;31824;49.648;8.640;2023-08-08T07:44:56;100348.94;;;16.26;100.00
46087;BME280;31824;49.648;8.640;2023-08-08T07:47:58;100352.53;;;16.52;100.00
46087;BME280;31824;49.648;8.640;2023-08-08T07:51:00;100349.63;;;16.61;100.00
46087;BME280;31824;49.648;8.640;2023-08-08T07:54:02;100346.38;;;16.90;100.00
46087;BME280;31824;49.648;8.640;2023-08-08T07:57:07;100350.25;;;17.20;100.00
46087;BME280;31824;49.648;8.640;2023-08-08T08:00:11;100355.72;;;17.10;100.00
46087;BME280;31824;49.648;8.640;2023-08-08T08:03:14;100355.13;;;17.14;100.00
46087;BME280;31824;49.648;8.640;2023-08-08T08:06:16;100344.81;;;17.06;100.00
46087;BME280;31824;49.648;8.640;2023-08-08T08:09:18;100365.84;;;17.16;100.00
46087;BME280;31824;49.648;8.640;2023-08-08T08:12:21;100352.97;;;16.83;100.00
46087;BME280;31824;49.648;8.640;2023-08-08T08:15:25;100357.25;;;16.93;100.00
46087;BME280;31824;49.648;8.640;2023-08-08T08:18:27;100352.44;;;17.01;100.00
46087;BME280;31824;49.648;8.640;2023-08-08T08:21:30;100356.91;;;17.27;100.00
46087;BME280;31824;49.648;8.640;2023-08-08T08:24:32;100350.28;;;17.34;100.00
46087;BME280;31824;49.648;8.640;2023-08-08T08:27:35;100348.22;;;17.43;100.00
46087;BME280;31824;49.648;8.640;2023-08-08T08:30:38;100339.63;;;17.47;100.00
46087;BME280;31824;49.648;8.640;2023-08-08T08:33:42;100353.25;;;17.52;100.00
46087;BME280;31824;49.648;8.640;2023-08-08T08:36:45;100350.78;;;17.42;100.00
46087;BME280;31824;49.648;8.640;2023-08-08T08:39:47;100345.28;;;17.52;100.00
46087;BME280;31824;49.648;8.640;2023-08-08T08:42:49;100351.91;;;17.72;100.00
46087;BME280;31824;49.648;8.640;2023-08-08T08:45:53;100343.63;;;17.67;100.00
46087;BME280;31824;49.648;8.640;2023-08-08T08:48:58;100340.53;;;17.75;100.00
46087;BME280;31824;49.648;8.640;2023-08-08T08:52:01;100348.03;;;17.80;100.00
46087;BME280;31824;49.648;8.640;2023-08-08T08:55:05;100347.09;;;17.80;100.00
46087;BME280;31824;49.648;8.640;2023-08-08T08:58:08;100340.75;;;17.91;100.00
46087;BME280;31824;49.648;8.640;2023-08-08T09:01:11;100338.34;;;17.94;100.00
46087;BME280;31824;49.648;8.640;2023-08-08T09:04:15;100335.13;;;17.86;100.00
46087;BME280;31824;49.648;8.640;2023-08-08T09:07:19;100334.63;;;17.92;100.00
46087;BME280;31824;49.648;8.640;2023-08-08T09:10:24;100328.78;;;18.11;100.00
46087;BME280;31824;49.648;8.640;2023-08-08T09:13:26;100324.69;;;18.16;100.00
46087;BME280;31824;49.648;8.640;2023-08-08T09:16:30;100328.69;;;18.10;100.00
46087;BME280;31824;49.648;8.640;2023-08-08T09:19:33;100325.13;;;18.09;100.00
46087;BME280;31824;49.648;8.640;2023-08-08T09:22:35;100329.16;;;18.31;100.00
46087;BME280;31824;49.648;8.640;2023-08-08T09:25:37;100327.97;;;18.12;100.00
46087;BME280;31824;49.648;8.640;2023-08-08T09:28:39;100318.97;;;18.38;100.00
46087;BME280;31824;49.648;8.640;2023-08-08T09:31:42;100324.84;;;18.19;100.00
46087;BME280;31824;49.648;8.640;2023-08-08T09:34:44;100316.63;;;18.43;100.00
46087;BME280;31824;49.648;8.640;2023-08-08T09:37:47;100300.25;;;18.65;100.00
46087;BME280;31824;49.648;8.640;2023-08-08T09:40:50;100318.06;;;18.81;100.00
46087;BME280;31824;49.648;8.640;2023-08-08T09:43:53;100310.53;;;18.74;100.00
46087;BME280;31824;49.648;8.640;2023-08-08T09:46:57;100305.53;;;18.94;100.00
46087;BME280;31824;49.648;8.640;2023-08-08T09:49:59;100300.69;;;19.01;100.00
46087;BME280;31824;49.648;8.640;2023-08-08T09:53:01;100315.16;;;19.06;100.00
46087;BME280;31824;49.648;8.640;2023-08-08T09:56:07;100313.44;;;19.07;100.00
46087;BME280;31824;49.648;8.640;2023-08-08T09:59:10;100303.06;;;19.12;100.00
46087;BME280;31824;49.648;8.640;2023-08-08T10:02:16;100307.91;;;19.49;100.00
46087;BME280;31824;49.648;8.640;2023-08-08T10:05:19;100303.75;;;19.54;100.00
46087;BME280;31824;49.648;8.640;2023-08-08T10:08:21;100300.31;;;19.25;100.00
46087;BME280;31824;49.648;8.640;2023-08-08T10:11:24;100306.97;;;19.48;100.00
46087;BME280;31824;49.648;8.640;2023-08-08T10:14:29;100298.16;;;19.96;100.00
46087;BME280;31824;49.648;8.640;2023-08-08T10:17:35;100313.00;;;19.76;100.00
46087;BME280;31824;49.648;8.640;2023-08-08T10:20:38;100312.09;;;19.75;100.00
46087;BME280;31824;49.648;8.640;2023-08-08T10:23:40;100298.56;;;19.87;100.00
46087;BME280;31824;49.648;8.640;2023-08-08T10:26:52;100314.22;;;19.81;100.00
46087;BME280;31824;49.648;8.640;2023-08-08T10:30:02;100312.91;;;19.89;100.00
46087;BME280;31824;49.648;8.640;2023-08-08T10:33:06;100306.84;;;19.77;100.00
46087;BME280;31824;49.648;8.640;2023-08-08T10:36:08;100298.66;;;19.73;100.00
46087;BME280;31824;49.648;8.640;2023-08-08T10:39:15;100301.78;;;20.13;100.00
46087;BME280;31824;49.648;8.640;2023-08-08T10:42:18;100302.03;;;20.17;100.00
46087;BME280;31824;49.648;8.640;2023-08-08T10:45:29;100302.84;;;20.16;100.00
46087;BME280;31824;49.648;8.640;2023-08-08T10:48:33;100305.63;;;19.86;100.00
46087;BME280;31824;49.648;8.640;2023-08-08T10:51:37;100295.53;;;20.12;100.00
46087;BME280;31824;49.648;8.640;2023-08-08T10:54:52;100288.03;;;20.21;100.00
46087;BME280;31824;49.648;8.640;2023-08-08T10:57:56;100295.63;;;20.30;100.00
46087;BME280;31824;49.648;8.640;2023-08-08T11:00:59;100293.22;;;20.51;100.00
46087;BME280;31824;49.648;8.640;2023-08-08T11:04:04;100290.38;;;20.48;100.00
46087;BME280;31824;49.648;8.640;2023-08-08T11:07:08;100282.03;;;20.42;100.00
46087;BME280;31824;49.648;8.640;2023-08-08T11:10:10;100288.88;;;20.86;100.00
46087;BME280;31824;49.648;8.640;2023-08-08T11:13:12;100289.63;;;20.67;100.00
46087;BME280;31824;49.648;8.640;2023-08-08T11:16:14;100287.84;;;20.84;100.00
46087;BME280;31824;49.648;8.640;2023-08-08T11:19:18;100279.63;;;20.80;100.00
46087;BME280;31824;49.648;8.640;2023-08-08T11:22:22;100286.75;;;20.64;100.00
46087;BME280;31824;49.648;8.640;2023-08-08T11:25:26;100273.44;;;20.81;100.00
46087;BME280;31824;49.648;8.640;2023-08-08T11:28:28;100280.41;;;20.95;100.00
46087;BME280;31824;49.648;8.640;2023-08-08T11:31:30;100285.34;;;20.87;100.00
46087;BME280;31824;49.648;8.640;2023-08-08T11:34:34;100280.53;;;20.64;100.00
46087;BME280;31824;49.648;8.640;2023-08-08T11:37:36;100279.13;;;20.54;100.00
46087;BME280;31824;49.648;8.640;2023-08-08T11:40:39;100293.03;;;20.81;100.00
46087;BME280;31824;49.648;8.640;2023-08-08T11:43:41;100286.16;;;21.03;100.00
46087;BME280;31824;49.648;8.640;2023-08-08T11:46:44;100300.91;;;20.78;100.00
46087;BME280;31824;49.648;8.640;2023-08-08T11:49:48;100286.00;;;20.67;100.00
46087;BME280;31824;49.648;8.640;2023-08-08T11:52:52;100265.69;;;20.52;100.00
46087;BME280;31824;49.648;8.640;2023-08-08T11:55:55;100285.94;;;20.82;100.00
46087;BME280;31824;49.648;8.640;2023-08-08T11:59:00;100264.91;;;20.88;100.00
46087;BME280;31824;49.648;8.640;2023-08-08T12:02:02;100260.81;;;20.95;100.00
46087;BME280;31824;49.648;8.640;2023-08-08T12:05:25;100262.81;;;21.17;100.00
46087;BME280;31824;49.648;8.640;2023-08-08T12:08:30;100266.38;;;21.17;100.00
46087;BME280;31824;49.648;8.640;2023-08-08T12:11:34;100270.00;;;21.18;100.00
46087;BME280;31824;49.648;8.640;2023-08-08T12:14:37;100261.66;;;21.12;100.00
46087;BME280;31824;49.648;8.640;2023-08-08T12:17:57;100257.31;;;21.14;100.00
46087;BME280;31824;49.648;8.640;2023-08-08T12:21:01;100255.00;;;21.56;100.00
46087;BME280;31824;49.648;8.640;2023-08-08T12:24:04;100261.31;;;21.58;100.00
46087;BME280;31824;49.648;8.640;2023-08-08T12:27:06;100261.91;;;21.34;100.00
46087;BME280;31824;49.648;8.640;2023-08-08T12:30:08;100262.41;;;21.09;100.00
46087;BME280;31824;49.648;8.640;2023-08-08T12:33:10;100254.34;;;21.25;100.00
46087;BME280;31824;49.648;8.640;2023-08-08T12:36:14;100264.69;;;21.54;100.00
46087;BME280;31824;49.648;8.640;2023-08-08T12:39:16;100255.81;;;21.55;100.00
46087;BME280;31824;49.648;8.640;2023-08-08T12:42:18;100261.22;;;21.92;100.00
46087;BME280;31824;49.648;8.640;2023-08-08T12:45:20;100253.75;;;22.05;100.00
46087;BME280;31824;49.648;8.640;2023-08-08T12:48:22;100254.81;;;21.71;100.00
46087;BME280;31824;49.648;8.640;2023-08-08T12:51:25;100258.03;;;21.82;100.00
46087;BME280;31824;49.648;8.640;2023-08-08T12:54:27;100260.44;;;22.15;100.00
46087;BME280;31824;49.648;8.640;2023-08-08T12:57:29;100254.03;;;22.11;100.00
46087;BME280;31824;49.648;8.640;2023-08-08T13:00:31;100252.63;;;22.37;100.00
46087;BME280;31824;49.648;8.640;2023-08-08T13:03:34;100248.47;;;22.44;100.00
46087;BME280;31824;49.648;8.640;2023-08-08T13:06:37;100250.00;;;22.39;100.00
46087;BME280;31824;49.648;8.640;2023-08-08T13:09:40;100244.50;;;21.79;100.00
46087;BME280;31824;49.648;8.640;2023-08-08T13:12:43;100241.22;;;22.23;100.00
46087;BME280;31824;49.648;8.640;2023-08-08T13:15:45;100238.28;;;21.80;100.00
46087;BME280;31824;49.648;8.640;2023-08-08T13:18:47;100242.75;;;21.99;100.00
46087;BME280;31824;49.648;8.640;2023-08-08T13:21:51;100237.88;;;22.28;100.00
46087;BME280;31824;49.648;8.640;2023-08-08T13:24:53;100243.69;;;22.19;100.00
46087;BME280;31824;49.648;8.640;2023-08-08T13:27:55;100232.53;;;22.47;100.00
46087;BME280;31824;49.648;8.640;2023-08-08T13:30:57;100242.03;;;22.40;100.00
46087;BME280;31824;49.648;8.640;2023-08-08T13:34:00;100244.81;;;22.04;100.00
46087;BME280;31824;49.648;8.640;2023-08-08T13:37:03;100241.72;;;22.15;100.00
46087;BME280;31824;49.648;8.640;2023-08-08T13:40:06;100249.94;;;21.80;100.00
46087;BME280;31824;49.648;8.640;2023-08-08T13:43:09;100235.00;;;21.85;100.00
46087;BME280;31824;49.648;8.640;2023-08-08T13:46:11;100256.13;;;21.99;100.00
46087;BME280;31824;49.648;8.640;2023-08-08T13:49:13;100243.69;;;21.62;100.00
46087;BME280;31824;49.648;8.640;2023-08-08T13:52:16;100242.88;;;21.82;100.00
46087;BME280;31824;49.648;8.640;2023-08-08T13:55:18;100237.56;;;22.21;100.00
46087;BME280;31824;49.648;8.640;2023-08-08T14:01:23;100238.16;;;21.77;100.00
46087;BME280;31824;49.648;8.640;2023-08-08T14:04:25;100229.63;;;21.66;100.00
46087;BME280;31824;49.648;8.640;2023-08-08T14:07:28;100227.44;;;21.57;100.00
46087;BME280;31824;49.648;8.640;2023-08-08T14:10:30;100216.63;;;21.55;100.00
46087;BME280;31824;49.648;8.640;2023-08-08T14:13:32;100225.13;;;21.29;100.00
46087;BME280;31824;49.648;8.640;2023-08-08T14:16:36;100218.69;;;21.07;100.00
46087;BME280;31824;49.648;8.640;2023-08-08T14:19:38;100228.09;;;20.99;100.00
46087;BME280;31824;49.648;8.640;2023-08-08T14:22:44;100222.53;;;21.30;100.00
46087;BME280;31824;49.648;8.640;2023-08-08T14:25:46;100221.50;;;21.28;100.00
46087;BME280;31824;49.648;8.640;2023-08-08T14:28:49;100212.59;;;21.28;100.00
46087;BME280;31824;49.648;8.640;2023-08-08T14:31:50;100213.66;;;21.67;100.00
46087;BME280;31824;49.648;8.640;2023-08-08T14:35:01;100209.53;;;21.38;100.00
46087;BME280;31824;49.648;8.640;2023-08-08T14:38:05;100201.59;;;21.57;100.00
46087;BME280;31824;49.648;8.640;2023-08-08T14:41:07;100202.75;;;21.45;100.00
46087;BME280;31824;49.648;8.640;2023-08-08T14:44:09;100211.97;;;21.33;100.00
46087;BME280;31824;49.648;8.640;2023-08-08T14:47:11;100219.09;;;21.33;100.00
46087;BME280;31824;49.648;8.640;2023-08-08T14:50:13;100212.41;;;20.88;100.00
46087;BME280;31824;49.648;8.640;2023-08-08T14:53:16;100209.75;;;20.88;100.00
46087;BME280;31824;49.648;8.640;2023-08-08T14:56:19;100213.97;;;21.01;100.00
46087;BME280;31824;49.648;8.640;2023-08-08T14:59:20;100219.91;;;20.96;100.00
46087;BME280;31824;49.648;8.640;2023-08-08T15:02:22;100218.28;;;20.81;100.00
46087;BME280;31824;49.648;8.640;2023-08-08T15:05:24;100218.22;;;20.63;100.00
46087;BME280;31824;49.648;8.640;2023-08-08T15:08:27;100228.81;;;20.62;100.00
46087;BME280;31824;49.648;8.640;2023-08-08T15:11:29;100232.63;;;20.67;100.00
46087;BME280;31824;49.648;8.640;2023-08-08T15:14:31;100233.84;;;20.39;100.00
46087;BME280;31824;49.648;8.640;2023-08-08T15:17:33;100237.25;;;20.36;100.00
46087;BME280;31824;49.648;8.640;2023-08-08T15:20:37;100249.59;;;20.34;100.00
46087;BME280;31824;49.648;8.640;2023-08-08T15:23:41;100249.91;;;20.57;100.00
46087;BME280;31824;49.648;8.640;2023-08-08T15:26:45;100242.91;;;20.42;100.00
46087;BME280;31824;49.648;8.640;2023-08-08T15:29:47;100242.19;;;20.29;100.00
46087;BME280;31824;49.648;8.640;2023-08-08T15:32:48;100251.19;;;20.31;100.00
46087;BME280;31824;49.648;8.640;2023-08-08T15:35:51;100245.59;;;20.26;100.00
46087;BME280;31824;49.648;8.640;2023-08-08T15:38:54;100248.69;;;20.34;100.00
46087;BME280;31824;49.648;8.640;2023-08-08T15:41:56;100255.28;;;20.40;100.00
46087;BME280;31824;49.648;8.640;2023-08-08T15:45:00;100249.00;;;20.23;100.00
46087;BME280;31824;49.648;8.640;2023-08-08T15:48:02;100254.38;;;20.40;100.00